Time;durP1;ratioP1;P1;durP2;ratioP2;P2;SDS_P1;SDS_P2;PMS_P1;PMS_P2;Temp;Humidity;BMP_temperature;BMP_pressure;BME280_temperature;BME280_humidity;BME280_pressure;Samples;Min_cycle;Max_cycle;Signal;HPM_P1;HPM_P2
2022/10/26 00:02:45;;;;;;;;;;;12.30;99.90;;;;;;8394709;28;20301;-81
2022/10/26 00:06:47;;;;;;;;;;;12.20;99.90;;;;;;8394915;28;20406;-81
2022/10/26 00:10:49;;;;;;;;;;;12.20;99.90;;;;;;8405736;28;19930;-80
2022/10/26 00:14:51;;;;;;;;;;;12.30;99.90;;;;;;8395628;28;19963;-80
2022/10/26 00:18:53;;;;;;;;;;;12.30;99.90;;;;;;8400977;28;20011;-80
2022/10/26 00:22:54;;;;;;;;;;;12.30;99.90;;;;;;8391983;28;19934;-80
2022/10/26 00:26:56;;;;;;;;;;;12.30;99.90;;;;;;8395773;28;19933;-81
2022/10/26 00:31:05;;;;;;;;;;;12.30;99.90;;;;;;8394268;28;19928;-80
2022/10/26 00:35:07;;;;;;;;;;;12.30;99.90;;;;;;8378037;28;19939;-80
2022/10/26 00:49:40;;;;;;;;;;;12.40;99.90;;;;;;8393089;28;19998;-81
2022/10/26 00:53:42;;;;;;;;;;;12.30;99.90;;;;;;8372183;28;19979;-80
2022/10/26 00:57:43;;;;;;;;;;;12.40;99.90;;;;;;8396634;28;19931;-81
2022/10/26 01:01:46;;;;;;;;;;;12.30;99.90;;;;;;8389867;28;20034;-81
2022/10/26 01:05:48;;;;;;;;;;;12.30;99.90;;;;;;8393759;28;19940;-80
2022/10/26 01:09:50;;;;;;;;;;;12.40;99.90;;;;;;8395339;28;20386;-81
2022/10/26 01:13:52;;;;;;;;;;;12.40;99.90;;;;;;8387148;28;19967;-81
2022/10/26 01:18:06;;;;;;;;;;;12.40;99.90;;;;;;8393490;28;19935;-81
2022/10/26 01:22:08;;;;;;;;;;;12.40;99.90;;;;;;8378643;28;19970;-81
2022/10/26 01:26:28;;;;;;;;;;;12.40;99.90;;;;;;8391761;28;19925;-80
2022/10/26 01:30:41;;;;;;;;;;;12.50;99.90;;;;;;8390995;28;19931;-81
2022/10/26 01:35:06;;;;;;;;;;;12.40;99.90;;;;;;8372106;28;20287;-81
2022/10/26 01:39:07;;;;;;;;;;;12.40;99.90;;;;;;8375789;28;19924;-81
2022/10/26 01:43:11;;;;;;;;;;;12.50;99.90;;;;;;8389655;28;20481;-81
2022/10/26 01:47:13;;;;;;;;;;;12.50;99.90;;;;;;8400315;28;19930;-81
2022/10/26 01:51:16;;;;;;;;;;;12.50;99.90;;;;;;8371896;28;19924;-80
2022/10/26 01:55:36;;;;;;;;;;;12.50;99.90;;;;;;8387365;28;19964;-81
2022/10/26 01:59:53;;;;;;;;;;;12.60;99.90;;;;;;8389253;28;19924;-80
2022/10/26 02:04:09;;;;;;;;;;;12.60;99.90;;;;;;8396209;28;20019;-80
2022/10/26 02:08:19;;;;;;;;;;;12.60;99.90;;;;;;8370456;28;19970;-80
2022/10/26 02:12:38;;;;;;;;;;;12.60;99.90;;;;;;8392819;28;20475;-81
2022/10/26 02:16:44;;;;;;;;;;;12.60;99.90;;;;;;8375969;28;20287;-81
2022/10/26 02:20:49;;;;;;;;;;;12.50;99.90;;;;;;8391025;28;19930;-81
2022/10/26 02:24:51;;;;;;;;;;;12.50;99.90;;;;;;8391368;28;19924;-81
2022/10/26 02:28:54;;;;;;;;;;;12.50;99.90;;;;;;8389419;28;20301;-81
2022/10/26 02:32:57;;;;;;;;;;;12.50;99.90;;;;;;8389490;28;19971;-81
2022/10/26 02:37:00;;;;;;;;;;;12.50;99.90;;;;;;8377980;28;19928;-81
2022/10/26 02:41:02;;;;;;;;;;;12.50;99.90;;;;;;8395867;28;20291;-82
2022/10/26 02:45:06;;;;;;;;;;;12.50;99.90;;;;;;8394549;28;19960;-81
2022/10/26 02:49:08;;;;;;;;;;;12.60;99.90;;;;;;8373750;28;19931;-81
2022/10/26 02:53:21;;;;;;;;;;;12.50;99.90;;;;;;8397608;28;19932;-81
2022/10/26 02:57:38;;;;;;;;;;;12.50;99.90;;;;;;8395405;28;20317;-81
2022/10/26 03:01:40;;;;;;;;;;;12.50;99.90;;;;;;8401452;28;19934;-81
2022/10/26 03:05:42;;;;;;;;;;;12.50;99.90;;;;;;8380346;28;20343;-81
2022/10/26 03:09:44;;;;;;;;;;;12.50;99.90;;;;;;8380857;28;20287;-81
2022/10/26 03:13:45;;;;;;;;;;;12.50;99.90;;;;;;8394619;28;19924;-80
2022/10/26 03:17:47;;;;;;;;;;;12.50;99.90;;;;;;8401342;28;20294;-81
2022/10/26 03:21:49;;;;;;;;;;;12.40;99.90;;;;;;8399755;28;19938;-81
2022/10/26 03:25:50;;;;;;;;;;;12.40;99.90;;;;;;8400677;28;20364;-81
2022/10/26 03:29:52;;;;;;;;;;;12.40;99.90;;;;;;8400299;28;20419;-81
2022/10/26 03:38:57;;;;;;;;;;;12.40;99.90;;;;;;8394340;28;19923;-80
2022/10/26 03:42:59;;;;;;;;;;;12.40;99.90;;;;;;8385415;28;19967;-82
2022/10/26 03:47:00;;;;;;;;;;;12.40;99.90;;;;;;8397210;28;19930;-81
2022/10/26 03:51:02;;;;;;;;;;;12.40;99.90;;;;;;8398760;28;20011;-81
2022/10/26 03:55:04;;;;;;;;;;;12.40;99.90;;;;;;8393950;28;19925;-81
2022/10/26 03:59:06;;;;;;;;;;;12.40;99.90;;;;;;8384932;28;19931;-80
2022/10/26 04:03:07;;;;;;;;;;;12.40;99.90;;;;;;8399711;28;19951;-81
2022/10/26 04:07:09;;;;;;;;;;;12.40;99.90;;;;;;8388471;28;19928;-81
2022/10/26 04:11:11;;;;;;;;;;;12.40;99.90;;;;;;8404951;28;20033;-81
2022/10/26 04:15:12;;;;;;;;;;;12.30;99.90;;;;;;8398539;28;20267;-81
2022/10/26 04:19:14;;;;;;;;;;;12.30;99.90;;;;;;8406156;28;19924;-81
2022/10/26 04:23:16;;;;;;;;;;;12.30;99.90;;;;;;8398413;28;20003;-81
2022/10/26 04:27:18;;;;;;;;;;;12.40;99.90;;;;;;8394443;28;20268;-81
2022/10/26 04:31:20;;;;;;;;;;;12.40;99.90;;;;;;8415543;28;20356;-80
2022/10/26 04:35:21;;;;;;;;;;;12.40;99.90;;;;;;8396557;28;20349;-81
2022/10/26 04:39:24;;;;;;;;;;;12.40;99.90;;;;;;8400665;28;20429;-81
2022/10/26 04:43:26;;;;;;;;;;;12.40;99.90;;;;;;8408165;28;19931;-81
2022/10/26 04:47:27;;;;;;;;;;;12.40;99.90;;;;;;8399899;28;19924;-81
2022/10/26 04:51:29;;;;;;;;;;;12.40;99.90;;;;;;8400963;28;20376;-80
2022/10/26 04:55:31;;;;;;;;;;;12.40;99.90;;;;;;8380171;28;19925;-81
2022/10/26 04:59:32;;;;;;;;;;;12.40;99.90;;;;;;8386914;28;19924;-81
2022/10/26 05:03:34;;;;;;;;;;;12.40;99.90;;;;;;8407242;28;20279;-81
2022/10/26 05:07:35;;;;;;;;;;;12.40;99.90;;;;;;8398064;28;20276;-81
2022/10/26 05:11:37;;;;;;;;;;;12.40;99.90;;;;;;8421209;28;19925;-81
2022/10/26 05:15:39;;;;;;;;;;;12.40;99.90;;;;;;8375324;28;19925;-81
2022/10/26 05:19:40;;;;;;;;;;;12.50;99.90;;;;;;8372058;28;19924;-80
2022/10/26 05:23:42;;;;;;;;;;;12.50;99.90;;;;;;8387479;28;19972;-80
2022/10/26 05:27:43;;;;;;;;;;;12.50;99.90;;;;;;8393585;28;19932;-80
2022/10/26 05:31:45;;;;;;;;;;;12.50;99.90;;;;;;8391716;28;19925;-80
2022/10/26 05:35:47;;;;;;;;;;;12.50;99.90;;;;;;8376834;28;19946;-81
2022/10/26 05:39:48;;;;;;;;;;;12.50;99.90;;;;;;8394782;28;19991;-81
2022/10/26 05:43:50;;;;;;;;;;;12.50;99.90;;;;;;8373820;28;20331;-80
2022/10/26 05:47:52;;;;;;;;;;;12.50;99.90;;;;;;8371421;28;19930;-80
2022/10/26 05:51:55;;;;;;;;;;;12.60;99.90;;;;;;8393795;28;19931;-81
2022/10/26 05:55:57;;;;;;;;;;;12.60;99.90;;;;;;8380409;28;19931;-80
2022/10/26 05:59:59;;;;;;;;;;;12.60;99.90;;;;;;8386265;28;19928;-80
2022/10/26 06:04:01;;;;;;;;;;;12.60;99.90;;;;;;8397829;28;19947;-80
2022/10/26 06:08:07;;;;;;;;;;;12.60;99.90;;;;;;8388175;28;20011;-80
2022/10/26 06:12:09;;;;;;;;;;;12.60;99.90;;;;;;8391854;28;20055;-79
2022/10/26 06:16:21;;;;;;;;;;;12.70;99.90;;;;;;8391324;28;19929;-80
2022/10/26 06:20:26;;;;;;;;;;;12.70;99.90;;;;;;8390115;28;19931;-80
2022/10/26 06:24:33;;;;;;;;;;;12.70;99.90;;;;;;8375122;28;19931;-80
2022/10/26 06:28:35;;;;;;;;;;;12.70;99.90;;;;;;8393785;28;19960;-80
2022/10/26 06:32:44;;;;;;;;;;;12.70;99.90;;;;;;8371175;28;19963;-80
2022/10/26 06:36:45;;;;;;;;;;;12.70;99.90;;;;;;8400773;28;19990;-80
2022/10/26 06:40:50;;;;;;;;;;;12.70;99.90;;;;;;8393708;28;19964;-80
2022/10/26 06:44:51;;;;;;;;;;;12.80;99.90;;;;;;8394782;28;19925;-80
2022/10/26 06:48:56;;;;;;;;;;;12.80;99.90;;;;;;8386582;28;19947;-80
2022/10/26 06:53:24;;;;;;;;;;;12.80;99.90;;;;;;8372289;28;19925;-80
2022/10/26 06:57:36;;;;;;;;;;;12.90;99.90;;;;;;8352924;28;20383;-80
2022/10/26 07:01:38;;;;;;;;;;;12.90;99.90;;;;;;8398681;28;21011;-80
2022/10/26 07:05:40;;;;;;;;;;;13.00;99.90;;;;;;8393764;28;19939;-80
2022/10/26 07:09:41;;;;;;;;;;;13.10;99.90;;;;;;8411457;28;19988;-80
2022/10/26 07:13:43;;;;;;;;;;;13.20;99.90;;;;;;8396552;28;19930;-81
2022/10/26 07:17:46;;;;;;;;;;;13.20;99.90;;;;;;8386473;28;19925;-80
2022/10/26 07:21:48;;;;;;;;;;;13.30;99.90;;;;;;8387922;28;19928;-80
2022/10/26 07:25:50;;;;;;;;;;;13.30;99.90;;;;;;8387713;28;20026;-80
2022/10/26 07:29:51;;;;;;;;;;;13.30;99.90;;;;;;8377102;28;19928;-80
2022/10/26 07:33:53;;;;;;;;;;;13.30;99.90;;;;;;8392692;28;19924;-80
2022/10/26 07:37:56;;;;;;;;;;;13.30;99.90;;;;;;8394024;28;20291;-80
2022/10/26 07:41:57;;;;;;;;;;;13.40;99.90;;;;;;8379707;28;19925;-80
2022/10/26 07:45:59;;;;;;;;;;;13.40;99.90;;;;;;8386458;28;19935;-80
2022/10/26 07:50:02;;;;;;;;;;;13.50;99.90;;;;;;8394976;28;19928;-80
2022/10/26 07:54:03;;;;;;;;;;;13.70;99.90;;;;;;8388657;28;19924;-80
2022/10/26 07:58:05;;;;;;;;;;;13.80;99.90;;;;;;8390674;28;19928;-80
2022/10/26 08:02:08;;;;;;;;;;;13.90;99.90;;;;;;8378027;28;19931;-80
2022/10/26 08:06:09;;;;;;;;;;;14.10;99.90;;;;;;8385538;28;20294;-80
2022/10/26 08:10:11;;;;;;;;;;;14.20;99.90;;;;;;8381303;28;19938;-80
2022/10/26 08:14:13;;;;;;;;;;;14.40;99.90;;;;;;8395517;28;19938;-80
2022/10/26 08:18:15;;;;;;;;;;;14.50;99.90;;;;;;8375956;28;19940;-80
2022/10/26 08:22:16;;;;;;;;;;;14.70;99.90;;;;;;8396871;28;19971;-79
2022/10/26 08:26:19;;;;;;;;;;;14.80;99.90;;;;;;8395879;28;19932;-80
2022/10/26 08:30:20;;;;;;;;;;;15.00;99.90;;;;;;8395589;28;19932;-81
2022/10/26 08:34:22;;;;;;;;;;;15.10;99.90;;;;;;8400887;28;19931;-79
2022/10/26 08:38:24;;;;;;;;;;;15.20;99.90;;;;;;8375099;28;20239;-80
2022/10/26 08:42:34;;;;;;;;;;;15.30;99.90;;;;;;8392820;28;19924;-80
2022/10/26 08:46:38;;;;;;;;;;;15.30;99.90;;;;;;8377369;28;19924;-81
2022/10/26 08:50:43;;;;;;;;;;;15.30;99.90;;;;;;8394043;28;20027;-80
2022/10/26 08:54:50;;;;;;;;;;;15.20;99.90;;;;;;8381935;28;19924;-80
2022/10/26 08:58:54;;;;;;;;;;;15.20;99.90;;;;;;8387345;28;20374;-80
2022/10/26 09:02:56;;;;;;;;;;;15.30;99.90;;;;;;8388142;28;19971;-80
2022/10/26 09:07:04;;;;;;;;;;;15.40;99.90;;;;;;8393278;28;19931;-80
2022/10/26 09:11:19;;;;;;;;;;;15.40;99.90;;;;;;8399729;28;19925;-80
2022/10/26 09:15:27;;;;;;;;;;;15.50;99.90;;;;;;8380048;28;19932;-80
2022/10/26 09:19:48;;;;;;;;;;;15.60;99.90;;;;;;8393031;28;19929;-79
2022/10/26 09:23:56;;;;;;;;;;;15.80;99.90;;;;;;8392490;28;19956;-80
2022/10/26 09:28:00;;;;;;;;;;;16.00;99.90;;;;;;8391435;28;19925;-80
2022/10/26 09:32:02;;;;;;;;;;;16.30;99.90;;;;;;8400454;28;20384;-80
2022/10/26 09:36:07;;;;;;;;;;;16.70;99.90;;;;;;8387100;28;19930;-81
2022/10/26 09:40:18;;;;;;;;;;;16.90;99.90;;;;;;8394350;28;19924;-80
2022/10/26 09:44:24;;;;;;;;;;;17.10;99.90;;;;;;8400570;28;19967;-80
2022/10/26 09:48:26;;;;;;;;;;;17.10;99.90;;;;;;8381895;28;20401;-81
2022/10/26 09:52:28;;;;;;;;;;;17.10;99.90;;;;;;8387849;28;19934;-80
2022/10/26 09:56:30;;;;;;;;;;;17.20;99.90;;;;;;8387149;28;19924;-82
2022/10/26 10:00:32;;;;;;;;;;;17.40;99.90;;;;;;8400243;28;19928;-81
2022/10/26 10:04:34;;;;;;;;;;;17.70;99.90;;;;;;8378499;28;19955;-81
2022/10/26 10:08:35;;;;;;;;;;;17.90;99.90;;;;;;8374627;28;19939;-81
2022/10/26 10:12:37;;;;;;;;;;;18.20;99.90;;;;;;8396537;28;19925;-80
2022/10/26 10:16:38;;;;;;;;;;;18.60;99.90;;;;;;8391357;28;19931;-81
2022/10/26 10:20:49;;;;;;;;;;;19.00;99.90;;;;;;8391317;28;19925;-81
2022/10/26 10:25:00;;;;;;;;;;;19.30;99.90;;;;;;8392383;28;22134;-81
2022/10/26 10:29:02;;;;;;;;;;;19.50;99.90;;;;;;8394548;28;19928;-81
2022/10/26 10:33:09;;;;;;;;;;;19.80;99.90;;;;;;8398189;28;20009;-81
2022/10/26 10:37:23;;;;;;;;;;;20.10;99.90;;;;;;8394169;28;20279;-82
2022/10/26 10:41:29;;;;;;;;;;;20.20;99.90;;;;;;8398141;28;19924;-82
2022/10/26 10:45:31;;;;;;;;;;;20.30;99.90;;;;;;8367850;28;19925;-81
2022/10/26 10:49:33;;;;;;;;;;;20.30;99.90;;;;;;8390733;28;20342;-81
2022/10/26 10:53:36;;;;;;;;;;;20.30;99.90;;;;;;8389508;28;19943;-81
2022/10/26 10:57:37;;;;;;;;;;;20.10;99.90;;;;;;8349567;28;19935;-82
2022/10/26 11:01:42;;;;;;;;;;;19.80;99.90;;;;;;8365456;28;20296;-82
2022/10/26 11:05:59;;;;;;;;;;;19.40;99.90;;;;;;8371012;28;19924;-82
2022/10/26 11:10:02;;;;;;;;;;;18.90;99.90;;;;;;8376374;28;20015;-82
2022/10/26 11:14:07;;;;;;;;;;;18.60;99.90;;;;;;8377854;28;19925;-82
2022/10/26 11:18:20;;;;;;;;;;;18.40;99.90;;;;;;8379123;28;19924;-81
2022/10/26 11:22:24;;;;;;;;;;;18.20;99.90;;;;;;8378698;28;20371;-82
2022/10/26 11:26:29;;;;;;;;;;;18.10;99.90;;;;;;8376712;28;20024;-81
2022/10/26 11:30:33;;;;;;;;;;;18.10;99.90;;;;;;8376807;28;19933;-81
2022/10/26 11:34:38;;;;;;;;;;;18.00;99.90;;;;;;8375565;28;19925;-81
2022/10/26 11:38:52;;;;;;;;;;;18.00;99.90;;;;;;8374272;28;19947;-82
2022/10/26 11:43:05;;;;;;;;;;;18.00;99.90;;;;;;8362650;28;20383;-82
2022/10/26 11:47:10;;;;;;;;;;;18.10;99.90;;;;;;8380106;28;19931;-82
2022/10/26 11:51:21;;;;;;;;;;;18.30;99.90;;;;;;8376646;28;19935;-82
2022/10/26 11:55:23;;;;;;;;;;;18.60;99.90;;;;;;8373298;28;19935;-82
2022/10/26 11:59:26;;;;;;;;;;;18.90;99.90;;;;;;8375516;28;20277;-80
2022/10/26 12:03:35;;;;;;;;;;;19.10;99.90;;;;;;8379182;28;20248;-80
2022/10/26 12:07:38;;;;;;;;;;;19.30;99.90;;;;;;8364420;28;19932;-80
2022/10/26 12:11:47;;;;;;;;;;;19.30;99.90;;;;;;8379259;28;20382;-80
2022/10/26 12:16:07;;;;;;;;;;;19.20;99.90;;;;;;8373189;28;20011;-79
2022/10/26 12:20:09;;;;;;;;;;;19.10;99.90;;;;;;8373140;28;19924;-79
2022/10/26 12:24:24;;;;;;;;;;;19.10;99.90;;;;;;8370061;28;19955;-80
2022/10/26 12:28:35;;;;;;;;;;;19.20;99.90;;;;;;8373085;28;20371;-80
2022/10/26 12:32:37;;;;;;;;;;;19.30;99.90;;;;;;8381652;28;19932;-80
2022/10/26 12:36:54;;;;;;;;;;;19.10;99.90;;;;;;8376137;28;20194;-79
2022/10/26 12:41:05;;;;;;;;;;;19.10;99.90;;;;;;8374465;28;19925;-80
2022/10/26 12:45:14;;;;;;;;;;;19.10;99.90;;;;;;8373962;28;20023;-80
2022/10/26 12:49:34;;;;;;;;;;;19.10;99.90;;;;;;8391598;28;20007;-80
2022/10/26 12:53:36;;;;;;;;;;;19.20;99.90;;;;;;8382320;28;19939;-80
2022/10/26 12:57:43;;;;;;;;;;;19.40;99.90;;;;;;8386398;28;19949;-80
2022/10/26 13:01:52;;;;;;;;;;;19.40;99.90;;;;;;8370164;28;19931;-80
2022/10/26 13:05:59;;;;;;;;;;;19.50;99.90;;;;;;8367676;28;19964;-79
2022/10/26 13:10:01;;;;;;;;;;;19.80;99.90;;;;;;8368928;28;19924;-80
2022/10/26 13:14:04;;;;;;;;;;;20.00;99.90;;;;;;8372069;28;19970;-79
2022/10/26 13:18:09;;;;;;;;;;;20.00;99.90;;;;;;8366852;28;20019;-79
2022/10/26 13:22:15;;;;;;;;;;;20.10;99.90;;;;;;8369472;28;20019;-80
2022/10/26 13:26:17;;;;;;;;;;;20.10;99.90;;;;;;8373397;28;19947;-80
2022/10/26 13:30:31;;;;;;;;;;;20.10;99.90;;;;;;8383528;28;19929;-79
2022/10/26 13:34:33;;;;;;;;;;;20.20;99.90;;;;;;8371755;28;19932;-79
2022/10/26 13:38:35;;;;;;;;;;;20.20;99.90;;;;;;8372718;28;19925;-80
2022/10/26 13:43:00;;;;;;;;;;;20.30;99.90;;;;;;8367337;28;19925;-80
2022/10/26 13:47:03;;;;;;;;;;;20.50;99.90;;;;;;8357882;28;20283;-78
2022/10/26 13:51:11;;;;;;;;;;;20.60;99.90;;;;;;8357874;28;20365;-79
2022/10/26 13:55:13;;;;;;;;;;;20.70;99.90;;;;;;8365280;28;19954;-75
2022/10/26 13:59:15;;;;;;;;;;;20.60;99.90;;;;;;8361415;28;19924;-75
2022/10/26 14:03:17;;;;;;;;;;;20.60;99.90;;;;;;8371071;28;19967;-75
2022/10/26 14:07:22;;;;;;;;;;;20.60;99.90;;;;;;8366294;28;19947;-75
2022/10/26 14:11:35;;;;;;;;;;;20.60;99.90;;;;;;8369588;28;20008;-75
2022/10/26 14:15:36;;;;;;;;;;;20.70;99.90;;;;;;8340616;28;19929;-76
2022/10/26 14:19:39;;;;;;;;;;;21.00;99.90;;;;;;8363403;28;19932;-75
2022/10/26 14:28:47;;;;;;;;;;;21.80;99.90;;;;;;8361976;28;19939;-76
2022/10/26 14:32:49;;;;;;;;;;;21.80;99.90;;;;;;8344945;28;19932;-75
2022/10/26 14:36:57;;;;;;;;;;;21.60;99.90;;;;;;8360571;28;20320;-75
2022/10/26 14:40:59;;;;;;;;;;;21.40;99.90;;;;;;8358838;28;20372;-75
2022/10/26 14:45:01;;;;;;;;;;;21.40;99.90;;;;;;8361847;28;19932;-75
2022/10/26 14:49:03;;;;;;;;;;;21.30;99.90;;;;;;8359797;28;19929;-75
2022/10/26 15:03:14;;;;;;;;;;;21.20;99.90;;;;;;8359303;28;20268;-76
2022/10/26 15:07:17;;;;;;;;;;;20.90;99.90;;;;;;8366148;28;20263;-75
2022/10/26 15:11:18;;;;;;;;;;;20.60;99.90;;;;;;8347248;28;19924;-75
2022/10/26 15:15:22;;;;;;;;;;;20.40;99.90;;;;;;8358384;28;19924;-75
2022/10/26 15:19:24;;;;;;;;;;;20.30;99.90;;;;;;8357844;28;20347;-75
2022/10/26 15:23:27;;;;;;;;;;;20.20;99.90;;;;;;8341247;28;19928;-75
2022/10/26 15:27:29;;;;;;;;;;;20.20;99.90;;;;;;8362379;28;19986;-75
2022/10/26 15:31:32;;;;;;;;;;;20.30;99.90;;;;;;8360306;28;20866;-75
2022/10/26 15:35:33;;;;;;;;;;;20.30;99.90;;;;;;8362009;28;19966;-75
2022/10/26 15:39:35;;;;;;;;;;;20.50;99.90;;;;;;8360911;28;21855;-75
2022/10/26 15:43:36;;;;;;;;;;;20.90;99.90;;;;;;8349652;28;19932;-75
2022/10/26 15:47:38;;;;;;;;;;;21.10;99.90;;;;;;8362688;28;20517;-75
2022/10/26 15:51:40;;;;;;;;;;;21.00;99.90;;;;;;8367363;28;19982;-75
2022/10/26 15:55:41;;;;;;;;;;;20.70;99.90;;;;;;8366924;28;19976;-75
2022/10/26 15:59:43;;;;;;;;;;;20.40;99.90;;;;;;8366434;28;19952;-75
2022/10/26 16:03:45;;;;;;;;;;;20.10;99.90;;;;;;8348354;28;20697;-75
2022/10/26 16:07:46;;;;;;;;;;;19.80;99.90;;;;;;8365240;28;19924;-75
2022/10/26 16:11:49;;;;;;;;;;;19.70;99.90;;;;;;8367224;28;19925;-75
2022/10/26 16:15:51;;;;;;;;;;;19.60;99.90;;;;;;8363440;28;19924;-75
2022/10/26 16:19:52;;;;;;;;;;;19.50;99.90;;;;;;8366517;28;20020;-75
2022/10/26 16:23:55;;;;;;;;;;;19.40;99.90;;;;;;8365404;28;24523;-75
2022/10/26 16:27:57;;;;;;;;;;;19.40;99.90;;;;;;8365999;28;19970;-75
2022/10/26 16:31:59;;;;;;;;;;;19.30;99.90;;;;;;8364745;28;19929;-75
2022/10/26 16:36:00;;;;;;;;;;;19.20;99.90;;;;;;8367422;28;19931;-75
2022/10/26 16:40:03;;;;;;;;;;;19.10;99.90;;;;;;8361529;28;19928;-75
2022/10/26 16:44:04;;;;;;;;;;;19.00;99.90;;;;;;8365422;28;19955;-75
2022/10/26 16:48:12;;;;;;;;;;;18.90;99.90;;;;;;8366596;28;19937;-75
2022/10/26 16:52:15;;;;;;;;;;;18.80;99.90;;;;;;8362765;28;20437;-75
2022/10/26 17:06:22;;;;;;;;;;;18.70;99.90;;;;;;8373457;28;19943;-75
2022/10/26 17:10:25;;;;;;;;;;;18.70;99.90;;;;;;8372030;28;19950;-75
2022/10/26 17:14:27;;;;;;;;;;;18.60;99.90;;;;;;8359761;28;19925;-75
2022/10/26 17:18:28;;;;;;;;;;;18.60;99.90;;;;;;8370049;28;19935;-75
2022/10/26 17:22:30;;;;;;;;;;;18.50;99.90;;;;;;8366441;28;19928;-75
2022/10/26 17:26:32;;;;;;;;;;;18.40;99.90;;;;;;8367671;28;19928;-76
2022/10/26 17:30:34;;;;;;;;;;;18.30;99.90;;;;;;8368075;28;20074;-75
2022/10/26 17:34:36;;;;;;;;;;;18.20;99.90;;;;;;8360701;28;19939;-75
2022/10/26 17:38:39;;;;;;;;;;;18.10;99.90;;;;;;8376162;28;19989;-76
2022/10/26 17:42:40;;;;;;;;;;;18.10;99.90;;;;;;8362566;28;20399;-75
2022/10/26 17:46:42;;;;;;;;;;;18.00;99.90;;;;;;8348615;28;19925;-75
2022/10/26 17:50:44;;;;;;;;;;;18.00;99.90;;;;;;8361974;28;20453;-75
2022/10/26 17:54:45;;;;;;;;;;;18.00;99.90;;;;;;8366876;28;19935;-75
2022/10/26 17:58:55;;;;;;;;;;;18.00;99.90;;;;;;8370579;28;19931;-75
2022/10/26 18:02:56;;;;;;;;;;;18.00;99.90;;;;;;8380267;28;19939;-75
2022/10/26 18:06:59;;;;;;;;;;;18.00;99.90;;;;;;8362135;28;20011;-75
2022/10/26 18:11:01;;;;;;;;;;;17.90;99.90;;;;;;8362546;28;19932;-75
2022/10/26 18:15:02;;;;;;;;;;;17.90;99.90;;;;;;8360548;28;19931;-75
2022/10/26 18:19:04;;;;;;;;;;;17.90;99.90;;;;;;8364187;28;20027;-75
2022/10/26 18:23:06;;;;;;;;;;;17.80;99.90;;;;;;8366617;28;20014;-76
2022/10/26 18:27:07;;;;;;;;;;;17.80;99.90;;;;;;8359718;28;19931;-75
2022/10/26 18:31:10;;;;;;;;;;;17.80;99.90;;;;;;8368427;28;19950;-75
2022/10/26 18:35:11;;;;;;;;;;;17.70;99.90;;;;;;8360490;28;20024;-75
2022/10/26 18:39:13;;;;;;;;;;;17.80;99.90;;;;;;8382129;28;19929;-75
2022/10/26 18:43:15;;;;;;;;;;;17.80;99.90;;;;;;8373511;28;19933;-75
2022/10/26 18:47:16;;;;;;;;;;;17.70;99.90;;;;;;8367552;28;19929;-75
2022/10/26 18:51:19;;;;;;;;;;;17.70;99.90;;;;;;8353622;28;19966;-75
2022/10/26 18:55:22;;;;;;;;;;;17.70;99.90;;;;;;8356544;28;19933;-75
2022/10/26 18:59:24;;;;;;;;;;;17.60;99.90;;;;;;8368237;28;19925;-76
2022/10/26 19:03:25;;;;;;;;;;;17.60;99.90;;;;;;8379930;28;20281;-75
2022/10/26 19:07:27;;;;;;;;;;;17.50;99.90;;;;;;8366824;28;20031;-75
2022/10/26 19:11:29;;;;;;;;;;;17.50;99.90;;;;;;8370861;28;19943;-75
2022/10/26 19:15:32;;;;;;;;;;;17.40;99.90;;;;;;8369845;28;20328;-75
2022/10/26 19:19:34;;;;;;;;;;;17.30;99.90;;;;;;8368390;28;20034;-75
2022/10/26 19:23:36;;;;;;;;;;;17.20;99.90;;;;;;8373735;28;19939;-75
2022/10/26 19:27:38;;;;;;;;;;;17.10;99.90;;;;;;8374756;28;20356;-75
2022/10/26 19:31:40;;;;;;;;;;;17.00;99.90;;;;;;8376351;28;19935;-75
2022/10/26 19:35:42;;;;;;;;;;;16.80;99.90;;;;;;8373743;28;19925;-75
2022/10/26 19:39:43;;;;;;;;;;;16.70;99.90;;;;;;8392528;28;20367;-75
2022/10/26 19:43:45;;;;;;;;;;;16.60;99.90;;;;;;8370460;28;20509;-76
2022/10/26 19:47:47;;;;;;;;;;;16.60;99.90;;;;;;8379854;28;19975;-75
2022/10/26 19:51:49;;;;;;;;;;;16.50;99.90;;;;;;8355196;28;20372;-74
2022/10/26 19:55:56;;;;;;;;;;;16.40;99.90;;;;;;8363149;28;19931;-75
2022/10/26 19:59:57;;;;;;;;;;;16.40;99.90;;;;;;8364303;28;19940;-75
2022/10/26 20:04:01;;;;;;;;;;;16.30;99.90;;;;;;8370405;28;19929;-75
2022/10/26 20:08:04;;;;;;;;;;;16.20;99.90;;;;;;8373871;28;19979;-75
2022/10/26 20:12:06;;;;;;;;;;;16.20;99.90;;;;;;8370308;28;19935;-75
2022/10/26 20:16:08;;;;;;;;;;;16.20;99.90;;;;;;8364726;28;19931;-76
2022/10/26 20:20:10;;;;;;;;;;;16.20;99.90;;;;;;8364860;28;19931;-75
2022/10/26 20:24:11;;;;;;;;;;;16.20;99.90;;;;;;8362773;28;19929;-76
2022/10/26 20:28:13;;;;;;;;;;;16.20;99.90;;;;;;8363660;28;19924;-75
2022/10/26 20:32:15;;;;;;;;;;;16.10;99.90;;;;;;8369018;28;19932;-75
2022/10/26 20:36:17;;;;;;;;;;;16.00;99.90;;;;;;8360081;28;19929;-75
2022/10/26 20:40:20;;;;;;;;;;;15.90;99.90;;;;;;8347428;28;19971;-75
2022/10/26 20:44:24;;;;;;;;;;;15.80;99.90;;;;;;8369214;28;19931;-76
2022/10/26 20:48:26;;;;;;;;;;;15.80;99.90;;;;;;8360450;28;19932;-75
2022/10/26 20:52:36;;;;;;;;;;;15.80;99.90;;;;;;8374528;28;19932;-75
2022/10/26 20:56:40;;;;;;;;;;;15.70;99.90;;;;;;8363978;28;19925;-76
2022/10/26 21:00:45;;;;;;;;;;;15.70;99.90;;;;;;8364879;28;20386;-75
2022/10/26 21:04:46;;;;;;;;;;;15.70;99.90;;;;;;8370307;28;20121;-75
2022/10/26 21:08:48;;;;;;;;;;;15.60;99.90;;;;;;8389501;28;19930;-75
2022/10/26 21:12:50;;;;;;;;;;;15.60;99.90;;;;;;8376115;28;19933;-77
2022/10/26 21:16:52;;;;;;;;;;;15.50;99.90;;;;;;8390067;28;19925;-77
2022/10/26 21:20:57;;;;;;;;;;;15.40;99.90;;;;;;8395826;28;20240;-78
2022/10/26 21:24:59;;;;;;;;;;;15.40;99.90;;;;;;8407911;28;19928;-77
2022/10/26 21:29:02;;;;;;;;;;;15.30;99.90;;;;;;8391998;28;20260;-77
2022/10/26 21:33:03;;;;;;;;;;;15.20;99.90;;;;;;8375334;28;19925;-77
2022/10/26 21:37:05;;;;;;;;;;;15.20;99.90;;;;;;8393900;28;19924;-77
2022/10/26 21:41:14;;;;;;;;;;;15.10;99.90;;;;;;8392061;28;19925;-77
2022/10/26 21:45:16;;;;;;;;;;;15.10;99.90;;;;;;8386137;28;20012;-77
2022/10/26 21:49:18;;;;;;;;;;;15.00;99.90;;;;;;8385154;28;19925;-77
2022/10/26 21:53:19;;;;;;;;;;;15.00;99.90;;;;;;8392538;28;20037;-77
2022/10/26 21:57:21;;;;;;;;;;;14.90;99.90;;;;;;8365864;28;19951;-77
2022/10/26 22:01:22;;;;;;;;;;;14.90;99.90;;;;;;8391757;28;19928;-77
2022/10/26 22:05:24;;;;;;;;;;;14.90;99.90;;;;;;8379379;28;20336;-77
2022/10/26 22:09:26;;;;;;;;;;;14.90;99.90;;;;;;8404849;28;19932;-77
2022/10/26 22:13:27;;;;;;;;;;;15.00;99.90;;;;;;8370722;28;20284;-77
2022/10/26 22:17:29;;;;;;;;;;;15.00;99.90;;;;;;8387076;28;20383;-77
2022/10/26 22:21:32;;;;;;;;;;;15.00;99.90;;;;;;8388621;28;19924;-77
2022/10/26 22:25:33;;;;;;;;;;;15.10;99.90;;;;;;8370373;28;20372;-78
2022/10/26 22:29:35;;;;;;;;;;;15.10;99.90;;;;;;8388100;28;20011;-77
2022/10/26 22:33:37;;;;;;;;;;;15.10;99.90;;;;;;8389764;28;20308;-77
2022/10/26 22:37:38;;;;;;;;;;;15.20;99.90;;;;;;8393164;28;19939;-77
2022/10/26 22:41:40;;;;;;;;;;;15.10;99.90;;;;;;8391468;28;20685;-78
2022/10/26 22:45:42;;;;;;;;;;;15.10;99.90;;;;;;8395153;28;20265;-78
2022/10/26 22:49:43;;;;;;;;;;;15.20;99.90;;;;;;8385634;28;19934;-77
2022/10/26 22:53:45;;;;;;;;;;;15.30;99.90;;;;;;8382597;28;20035;-78
2022/10/26 22:57:47;;;;;;;;;;;15.30;99.90;;;;;;8387059;28;19963;-77
2022/10/26 23:01:49;;;;;;;;;;;15.40;99.90;;;;;;8391294;28;19963;-77
2022/10/26 23:05:50;;;;;;;;;;;15.40;99.90;;;;;;8373905;28;19925;-77
2022/10/26 23:09:52;;;;;;;;;;;15.40;99.90;;;;;;8404877;28;20295;-77
2022/10/26 23:13:58;;;;;;;;;;;15.50;99.90;;;;;;8397485;28;19934;-77
2022/10/26 23:17:59;;;;;;;;;;;15.50;99.90;;;;;;8398852;28;19924;-77
2022/10/26 23:22:01;;;;;;;;;;;15.50;99.90;;;;;;8393750;28;19935;-77
2022/10/26 23:26:04;;;;;;;;;;;15.50;99.90;;;;;;8392479;28;19937;-77
2022/10/26 23:30:06;;;;;;;;;;;15.40;99.90;;;;;;8398213;28;20350;-77
2022/10/26 23:34:08;;;;;;;;;;;15.40;99.90;;;;;;8393764;28;19983;-77
2022/10/26 23:38:09;;;;;;;;;;;15.30;99.90;;;;;;8393890;28;19940;-77
2022/10/26 23:42:11;;;;;;;;;;;15.20;99.90;;;;;;8384186;28;19931;-77
2022/10/26 23:46:12;;;;;;;;;;;15.10;99.90;;;;;;8396095;28;19924;-77
2022/10/26 23:50:14;;;;;;;;;;;15.10;99.90;;;;;;8400133;28;19924;-77
2022/10/26 23:54:16;;;;;;;;;;;15.00;99.90;;;;;;8386039;28;19927;-77
2022/10/26 23:58:18;;;;;;;;;;;15.00;99.90;;;;;;8397947;28;19929;-77
